createdAt,value
2022-08-05T00:00:18.678Z,92.00
2022-08-05T00:02:51.452Z,92.00
2022-08-05T00:06:01.636Z,92.20
2022-08-05T00:08:32.957Z,92.30
2022-08-05T00:11:00.301Z,92.30
2022-08-05T00:13:38.532Z,92.30
2022-08-05T00:16:10.906Z,92.50
2022-08-05T00:18:41.146Z,92.60
2022-08-05T00:21:09.877Z,92.60
2022-08-05T00:23:46.968Z,92.70
2022-08-05T00:26:22.001Z,92.80
2022-08-05T00:28:50.587Z,92.80
2022-08-05T00:31:54.148Z,93.00
2022-08-05T00:34:54.424Z,93.00
2022-08-05T00:37:10.347Z,93.00
2022-08-05T00:39:57.309Z,93.10
2022-08-05T00:42:40.245Z,92.90
2022-08-05T00:45:11.849Z,93.10
2022-08-05T00:47:56.639Z,93.00
2022-08-05T00:50:25.839Z,93.10
2022-08-05T00:52:55.032Z,93.00
2022-08-05T00:55:23.057Z,93.00
2022-08-05T00:58:01.671Z,92.70
2022-08-05T01:00:32.291Z,92.80
2022-08-05T01:03:01.477Z,92.60
2022-08-05T01:05:35.268Z,92.80
2022-08-05T01:08:41.106Z,92.60
2022-08-05T01:10:55.113Z,92.70
2022-08-05T01:13:27.217Z,92.70
2022-08-05T01:16:27.014Z,92.70
2022-08-05T01:19:01.362Z,92.80
2022-08-05T01:22:04.059Z,92.80
2022-08-05T01:25:13.748Z,92.80
2022-08-05T01:27:50.693Z,92.90
2022-08-05T01:30:34.777Z,92.90
2022-08-05T01:33:08.264Z,93.00
2022-08-05T01:35:52.173Z,93.10
2022-08-05T01:38:24.831Z,93.20
2022-08-05T01:40:59.117Z,93.30
2022-08-05T01:43:28.502Z,93.10
2022-08-05T01:45:57.184Z,93.30
2022-08-05T01:48:30.709Z,93.20
2022-08-05T01:51:04.637Z,93.20
2022-08-05T01:53:57.684Z,93.30
2022-08-05T01:58:10.214Z,93.40
2022-08-05T01:59:23.971Z,93.50
2022-08-05T02:01:57.877Z,93.50
2022-08-05T02:04:29.983Z,93.60
2022-08-05T02:06:59.203Z,93.60
2022-08-05T02:09:27.191Z,93.70
2022-08-05T02:11:59.926Z,93.40
2022-08-05T02:14:34.683Z,93.60
2022-08-05T02:17:29.955Z,93.80
2022-08-05T02:20:06.963Z,93.60
2022-08-05T02:22:42.381Z,93.60
2022-08-05T02:25:17.894Z,93.80
2022-08-05T02:27:58.319Z,94.00
2022-08-05T02:30:38.871Z,94.00
2022-08-05T02:33:24.481Z,93.80
2022-08-05T02:36:05.482Z,93.90
2022-08-05T02:38:35.348Z,93.90
2022-08-05T02:41:06.597Z,93.80
2022-08-05T02:44:02.486Z,93.80
2022-08-05T02:46:36.235Z,93.80
2022-08-05T02:49:21.913Z,93.70
2022-08-05T02:52:03.965Z,93.80
2022-08-05T02:54:36.971Z,93.60
2022-08-05T02:58:09.190Z,93.40
2022-08-05T02:59:59.448Z,93.30
2022-08-05T03:02:34.723Z,93.10
2022-08-05T03:05:04.404Z,93.00
2022-08-05T03:08:00.526Z,93.30
2022-08-05T03:10:24.563Z,92.60
2022-08-05T03:12:53.261Z,92.70
2022-08-05T03:15:23.363Z,92.70
2022-08-05T03:17:54.086Z,92.60
2022-08-05T03:20:24.479Z,92.80
2022-08-05T03:22:55.269Z,92.40
2022-08-05T03:25:32.587Z,92.30
2022-08-05T03:28:14.786Z,92.40
2022-08-05T03:30:50.971Z,92.40
2022-08-05T03:33:22.898Z,92.50
2022-08-05T03:36:00.193Z,92.50
2022-08-05T03:38:33.269Z,92.50
2022-08-05T03:41:08.356Z,92.60
2022-08-05T03:44:09.122Z,92.60
2022-08-05T03:46:26.794Z,92.80
2022-08-05T03:48:57.847Z,92.60
2022-08-05T03:52:39.291Z,92.60
2022-08-05T03:55:52.149Z,92.60
2022-08-05T03:57:42.492Z,92.80
2022-08-05T04:00:16.457Z,92.70
2022-08-05T04:02:57.845Z,92.50
2022-08-05T04:05:33.675Z,92.70
2022-08-05T04:08:05.753Z,92.90
2022-08-05T04:10:50.542Z,92.80
2022-08-05T04:13:18.842Z,92.60
2022-08-05T04:16:03.132Z,92.60
2022-08-05T04:18:34.397Z,92.70
2022-08-05T04:21:04.267Z,92.70
2022-08-05T04:24:04.765Z,92.40
2022-08-05T04:26:20.587Z,92.40
2022-08-05T04:28:51.101Z,92.80
2022-08-05T04:31:20.607Z,92.60
2022-08-05T04:34:18.048Z,92.60
2022-08-05T04:36:45.437Z,92.60
2022-08-05T04:39:17.174Z,92.70
2022-08-05T04:41:45.938Z,92.70
2022-08-05T04:44:16.257Z,92.80
2022-08-05T04:47:09.688Z,92.70
2022-08-05T04:50:01.445Z,92.80
2022-08-05T04:52:28.938Z,92.80
2022-08-05T04:54:57.050Z,92.80
2022-08-05T04:57:28.937Z,93.00
2022-08-05T04:59:58.452Z,92.90
2022-08-05T05:02:36.819Z,93.00
2022-08-05T05:05:17.022Z,92.80
2022-08-05T05:07:56.087Z,93.00
2022-08-05T05:10:25.807Z,93.20
2022-08-05T05:12:57.266Z,93.00
2022-08-05T05:15:59.391Z,93.10
2022-08-05T05:18:31.113Z,93.30
2022-08-05T05:21:01.439Z,92.90
2022-08-05T05:24:02.078Z,93.10
2022-08-05T05:26:16.192Z,92.50
2022-08-05T05:28:45.038Z,92.60
2022-08-05T05:31:12.975Z,92.40
2022-08-05T05:33:58.807Z,92.90
2022-08-05T05:36:28.414Z,92.80
2022-08-05T05:38:57.497Z,92.90
2022-08-05T05:41:25.074Z,92.80
2022-08-05T05:44:36.105Z,92.90
2022-08-05T05:46:54.944Z,93.20
2022-08-05T05:49:25.331Z,93.20
2022-08-05T05:51:53.556Z,93.10
2022-08-05T05:54:21.171Z,93.10
2022-08-05T05:56:48.725Z,92.80
2022-08-05T05:59:17.539Z,92.60
2022-08-05T06:01:57.358Z,92.80
2022-08-05T06:04:25.617Z,93.00
2022-08-05T06:06:52.956Z,92.50
2022-08-05T06:09:26.517Z,92.80
2022-08-05T06:12:09.536Z,92.70
2022-08-05T06:14:37.178Z,93.00
2022-08-05T06:17:24.379Z,92.10
2022-08-05T06:19:57.093Z,92.80
2022-08-05T06:22:33.307Z,92.30
2022-08-05T06:25:24.895Z,92.50
2022-08-05T06:28:10.540Z,91.90
2022-08-05T06:30:39.079Z,92.90
2022-08-05T06:33:09.909Z,91.50
2022-08-05T06:36:07.620Z,92.40
2022-08-05T06:38:36.437Z,91.70
2022-08-05T06:41:05.202Z,92.20
2022-08-05T06:43:58.550Z,92.00
2022-08-05T06:46:23.853Z,92.60
2022-08-05T06:48:59.740Z,91.80
2022-08-05T06:51:30.947Z,91.70
2022-08-05T06:54:02.685Z,91.60
2022-08-05T06:56:34.144Z,91.00
2022-08-05T06:59:03.505Z,91.20
2022-08-05T07:01:36.132Z,91.30
2022-08-05T07:04:04.270Z,90.80
2022-08-05T07:06:32.226Z,91.00
2022-08-05T07:09:04.278Z,90.70
2022-08-05T07:11:37.340Z,90.30
2022-08-05T07:14:29.584Z,90.20
2022-08-05T07:17:58.198Z,90.10
2022-08-05T07:22:39.079Z,90.20
2022-08-05T07:25:23.869Z,90.60
2022-08-05T07:27:57.063Z,89.10
2022-08-05T07:30:31.905Z,88.60
2022-08-05T07:33:09.491Z,88.90
2022-08-05T07:36:03.567Z,89.00
2022-08-05T07:38:34.149Z,86.80
2022-08-05T07:42:08.921Z,87.10
2022-08-05T07:43:58.678Z,87.20
2022-08-05T07:46:28.050Z,85.80
2022-08-05T07:49:02.502Z,85.00
2022-08-05T07:51:40.627Z,87.40
2022-08-05T07:54:18.727Z,88.40
2022-08-05T07:57:13.611Z,86.10
2022-08-05T07:59:40.516Z,85.60
2022-08-05T08:02:16.565Z,85.30
2022-08-05T08:04:48.396Z,86.50
2022-08-05T08:07:22.224Z,84.80
2022-08-05T08:09:52.356Z,85.10
2022-08-05T08:12:36.931Z,84.80
2022-08-05T08:15:14.301Z,83.50
2022-08-05T08:17:52.475Z,84.40
2022-08-05T08:20:59.981Z,82.30
2022-08-05T08:23:11.691Z,82.70
2022-08-05T08:25:59.945Z,81.80
2022-08-05T08:28:36.831Z,82.60
2022-08-05T08:31:06.728Z,81.80
2022-08-05T08:33:38.144Z,82.20
2022-08-05T08:38:56.834Z,82.50
2022-08-05T08:41:52.412Z,81.90
2022-08-05T08:45:22.401Z,82.40
2022-08-05T08:47:21.620Z,81.70
2022-08-05T08:50:22.802Z,81.10
2022-08-05T08:52:52.894Z,80.80
2022-08-05T08:55:31.941Z,81.50
2022-08-05T08:58:10.237Z,81.30
2022-08-05T09:00:42.359Z,80.70
2022-08-05T09:03:11.645Z,83.00
2022-08-05T09:06:08.747Z,81.00
2022-08-05T09:08:30.091Z,81.10
2022-08-05T09:10:58.463Z,78.70
2022-08-05T09:13:31.883Z,80.10
2022-08-05T09:16:14.634Z,78.90
2022-08-05T09:18:44.742Z,80.50
2022-08-05T09:21:20.837Z,81.30
2022-08-05T09:24:05.024Z,80.50
2022-08-05T09:26:34.150Z,76.90
2022-08-05T09:29:08.866Z,76.80
2022-08-05T09:32:41.064Z,76.30
2022-08-05T09:34:26.023Z,79.40
2022-08-05T09:36:56.245Z,78.70
2022-08-05T09:39:39.332Z,77.00
2022-08-05T09:42:23.258Z,76.30
2022-08-05T09:44:56.310Z,75.00
2022-08-05T09:47:48.170Z,76.70
2022-08-05T09:50:37.753Z,75.70
2022-08-05T09:53:06.395Z,76.90
2022-08-05T09:55:56.506Z,73.80
2022-08-05T09:58:25.108Z,72.60
2022-08-05T10:01:01.619Z,74.80
2022-08-05T10:03:58.893Z,74.80
2022-08-05T10:06:28.490Z,72.40
2022-08-05T10:08:57.085Z,76.40
2022-08-05T10:11:31.424Z,71.90
2022-08-05T10:14:32.152Z,72.00
2022-08-05T10:17:38.078Z,70.60
2022-08-05T10:20:10.053Z,69.40
2022-08-05T10:22:48.580Z,70.00
2022-08-05T10:25:19.519Z,69.40
2022-08-05T10:28:13.167Z,69.10
2022-08-05T10:32:49.510Z,68.30
2022-08-05T10:33:29.073Z,67.60
2022-08-05T10:35:59.955Z,69.90
2022-08-05T10:38:29.757Z,70.10
2022-08-05T10:41:23.422Z,66.60
2022-08-05T10:44:10.294Z,69.00
2022-08-05T10:46:50.567Z,67.00
2022-08-05T10:49:18.896Z,65.90
2022-08-05T10:52:02.363Z,66.00
2022-08-05T10:54:56.773Z,67.40
2022-08-05T10:57:31.807Z,66.90
2022-08-05T11:00:22.675Z,66.70
2022-08-05T11:03:24.550Z,65.90
2022-08-05T11:06:15.473Z,67.40
2022-08-05T11:09:13.178Z,66.70
2022-08-05T11:11:53.386Z,66.40
2022-08-05T11:18:00.020Z,66.60
2022-08-05T11:20:41.433Z,64.40
2022-08-05T11:23:49.831Z,64.70
2022-08-05T11:26:28.671Z,61.50
2022-08-05T11:29:12.007Z,63.00
2022-08-05T11:31:56.561Z,61.90
2022-08-05T11:34:51.765Z,62.50
2022-08-05T11:38:30.793Z,62.00
2022-08-05T11:41:34.480Z,63.60
2022-08-05T11:44:05.606Z,64.00
2022-08-05T11:47:09.488Z,58.60
2022-08-05T11:49:42.746Z,62.10
2022-08-05T11:52:11.941Z,60.20
2022-08-05T11:54:41.571Z,60.90
2022-08-05T11:57:24.785Z,59.70
2022-08-05T11:59:53.341Z,58.70
2022-08-05T12:02:32.529Z,60.10
2022-08-05T12:05:07.683Z,60.40
2022-08-05T12:08:07.814Z,60.50
2022-08-05T12:10:43.691Z,60.50
2022-08-05T12:13:28.130Z,61.70
2022-08-05T12:16:14.840Z,59.60
2022-08-05T12:18:52.261Z,60.20
2022-08-05T12:21:29.841Z,60.60
2022-08-05T12:24:04.459Z,58.70
2022-08-05T12:26:43.855Z,58.50
2022-08-05T12:29:37.946Z,59.40
2022-08-05T12:32:07.468Z,59.10
2022-08-05T12:34:38.163Z,59.60
2022-08-05T12:37:21.479Z,60.50
2022-08-05T12:39:51.922Z,59.50
2022-08-05T12:42:25.198Z,59.20
2022-08-05T12:44:52.856Z,58.70
2022-08-05T12:47:31.201Z,59.30
2022-08-05T12:50:03.140Z,59.80
2022-08-05T12:52:39.663Z,61.30
2022-08-05T12:55:25.421Z,61.70
2022-08-05T12:58:48.551Z,61.40
2022-08-05T13:02:00.488Z,60.10
2022-08-05T13:03:43.165Z,60.30
2022-08-05T13:06:16.047Z,59.50
2022-08-05T13:08:51.847Z,57.90
2022-08-05T13:11:25.656Z,59.00
2022-08-05T13:14:20.443Z,57.40
2022-08-05T13:17:07.377Z,59.00
2022-08-05T13:19:40.272Z,58.70
2022-08-05T13:22:27.690Z,58.60
2022-08-05T13:25:05.031Z,58.90
2022-08-05T13:27:51.679Z,59.80
2022-08-05T13:30:32.752Z,58.60
2022-08-05T13:33:03.863Z,59.10
2022-08-05T13:35:47.210Z,58.40
2022-08-05T13:38:30.482Z,59.40
2022-08-05T13:41:00.090Z,60.20
2022-08-05T13:43:45.098Z,60.00
2022-08-05T13:46:16.302Z,59.20
2022-08-05T13:48:58.518Z,59.60
2022-08-05T13:51:40.162Z,60.10
2022-08-05T13:54:12.002Z,60.90
2022-08-05T13:56:45.229Z,59.30
2022-08-05T13:59:24.468Z,59.90
2022-08-05T14:01:57.588Z,60.00
2022-08-05T14:04:50.187Z,59.80
2022-08-05T14:07:55.536Z,60.70
2022-08-05T14:10:18.618Z,60.60
2022-08-05T14:12:55.514Z,60.40
2022-08-05T14:16:04.719Z,58.80
2022-08-05T14:18:17.553Z,59.10
2022-08-05T14:20:49.178Z,58.50
2022-08-05T14:23:25.900Z,60.00
2022-08-05T14:25:58.542Z,59.60
2022-08-05T14:28:28.289Z,59.10
2022-08-05T14:31:01.565Z,58.90
2022-08-05T14:33:56.655Z,59.30
2022-08-05T14:36:21.512Z,59.80
2022-08-05T14:38:50.221Z,60.30
2022-08-05T14:41:17.859Z,60.60
2022-08-05T14:43:58.863Z,61.60
2022-08-05T14:46:31.142Z,62.40
2022-08-05T14:49:06.938Z,62.50
2022-08-05T14:51:42.787Z,62.90
2022-08-05T14:54:28.140Z,63.80
2022-08-05T14:56:58.167Z,63.20
2022-08-05T14:59:29.209Z,61.80
2022-08-05T15:01:58.073Z,61.10
2022-08-05T15:04:27.420Z,62.40
2022-08-05T15:06:56.919Z,61.80
2022-08-05T15:09:52.725Z,60.20
2022-08-05T15:12:16.861Z,60.50
2022-08-05T15:14:49.828Z,58.40
2022-08-05T15:17:47.780Z,58.90
2022-08-05T15:20:17.206Z,58.80
2022-08-05T15:22:52.372Z,57.30
2022-08-05T15:25:51.060Z,59.60
2022-08-05T15:28:13.351Z,60.10
2022-08-05T15:30:43.781Z,59.90
2022-08-05T15:34:04.495Z,58.90
2022-08-05T15:36:03.435Z,60.00
2022-08-05T15:38:40.880Z,61.30
2022-08-05T15:41:22.859Z,62.20
2022-08-05T15:43:54.612Z,62.50
2022-08-05T15:46:24.884Z,61.60
2022-08-05T15:49:00.716Z,62.40
2022-08-05T15:52:12.665Z,62.80
2022-08-05T15:54:34.927Z,62.50
2022-08-05T15:57:02.974Z,60.60
2022-08-05T15:59:35.591Z,59.90
2022-08-05T16:02:03.030Z,60.40
2022-08-05T16:04:37.363Z,59.70
2022-08-05T16:07:06.555Z,60.20
2022-08-05T16:09:41.650Z,61.20
2022-08-05T16:12:09.856Z,61.00
2022-08-05T16:14:38.936Z,62.40
2022-08-05T16:17:06.738Z,62.30
2022-08-05T16:20:04.525Z,61.70
2022-08-05T16:22:27.433Z,61.00
2022-08-05T16:24:55.333Z,59.80
2022-08-05T16:27:32.166Z,59.90
2022-08-05T16:30:23.258Z,61.60
2022-08-05T16:32:54.270Z,62.90
2022-08-05T16:35:27.831Z,64.70
2022-08-05T16:38:02.276Z,65.30
2022-08-05T16:40:47.703Z,65.10
2022-08-05T16:43:19.962Z,63.90
2022-08-05T16:46:06.811Z,62.90
2022-08-05T16:48:35.902Z,62.70
2022-08-05T16:51:09.362Z,63.50
2022-08-05T16:54:04.304Z,63.80
2022-08-05T16:56:28.057Z,65.30
2022-08-05T16:58:56.176Z,66.40
2022-08-05T17:01:24.876Z,68.70
2022-08-05T17:03:52.453Z,70.50
2022-08-05T17:06:20.674Z,72.00
2022-08-05T17:08:54.465Z,73.80
2022-08-05T17:11:25.431Z,74.20
2022-08-05T17:14:00.529Z,74.50
2022-08-05T17:16:36.473Z,75.50
2022-08-05T17:19:07.846Z,75.80
2022-08-05T17:21:37.635Z,76.30
2022-08-05T17:24:19.581Z,77.00
2022-08-05T17:26:58.113Z,77.50
2022-08-05T17:29:33.111Z,78.10
2022-08-05T17:32:01.775Z,78.40
2022-08-05T17:34:29.771Z,78.80
2022-08-05T17:36:57.918Z,79.20
2022-08-05T17:39:34.051Z,79.60
2022-08-05T17:42:19.056Z,79.70
2022-08-05T17:44:51.126Z,79.80
2022-08-05T17:47:22.427Z,79.90
2022-08-05T17:50:03.788Z,80.20
2022-08-05T17:52:33.228Z,80.60
2022-08-05T17:55:02.992Z,81.00
2022-08-05T17:57:31.379Z,81.50
2022-08-05T18:00:05.245Z,81.50
2022-08-05T18:02:34.074Z,82.20
2022-08-05T18:05:06.427Z,82.70
2022-08-05T18:07:42.185Z,82.90
2022-08-05T18:10:20.450Z,83.30
2022-08-05T18:12:49.698Z,83.90
2022-08-05T18:15:17.178Z,84.50
2022-08-05T18:18:01.597Z,84.50
2022-08-05T18:20:32.622Z,85.10
2022-08-05T18:23:09.374Z,85.60
2022-08-05T18:25:44.737Z,86.10
2022-08-05T18:28:16.370Z,86.70
2022-08-05T18:30:52.674Z,87.20
2022-08-05T18:33:23.167Z,87.30
2022-08-05T18:36:03.320Z,87.70
2022-08-05T18:38:36.182Z,87.90
2022-08-05T18:41:55.982Z,88.10
2022-08-05T18:43:53.357Z,88.20
2022-08-05T18:46:21.817Z,88.10
2022-08-05T18:48:54.921Z,88.40
2022-08-05T18:52:02.739Z,88.60
2022-08-05T18:54:31.887Z,88.80
2022-08-05T18:57:02.774Z,89.20
2022-08-05T18:59:42.873Z,89.60
2022-08-05T19:02:37.996Z,89.70
2022-08-05T19:06:06.080Z,90.00
2022-08-05T19:07:56.579Z,90.10
2022-08-05T19:10:27.848Z,90.20
2022-08-05T19:12:57.100Z,90.40
2022-08-05T19:15:56.731Z,90.50
2022-08-05T19:18:22.045Z,90.80
2022-08-05T19:20:53.995Z,90.90
2022-08-05T19:24:04.970Z,91.10
2022-08-05T19:26:09.529Z,91.20
2022-08-05T19:28:43.322Z,91.30
2022-08-05T19:31:13.185Z,91.40
2022-08-05T19:33:48.229Z,91.50
2022-08-05T19:36:29.369Z,91.70
2022-08-05T19:39:01.086Z,91.80
2022-08-05T19:41:58.197Z,92.00
2022-08-05T19:44:18.355Z,92.10
2022-08-05T19:46:46.284Z,92.30
2022-08-05T19:49:16.837Z,92.50
2022-08-05T19:52:09.435Z,92.50
2022-08-05T19:54:36.878Z,92.60
2022-08-05T19:57:06.406Z,92.80
2022-08-05T19:59:59.369Z,92.90
2022-08-05T20:02:24.431Z,93.00
2022-08-05T20:04:55.600Z,92.90
2022-08-05T20:07:46.304Z,92.90
2022-08-05T20:10:15.113Z,93.00
2022-08-05T20:12:47.578Z,93.00
2022-08-05T20:15:23.119Z,93.10
2022-08-05T20:18:10.288Z,93.20
2022-08-05T20:20:56.752Z,93.30
2022-08-05T20:23:39.634Z,93.40
2022-08-05T20:26:16.524Z,93.50
2022-08-05T20:28:51.147Z,93.40
2022-08-05T20:31:28.341Z,93.20
2022-08-05T20:34:09.432Z,93.30
2022-08-05T20:36:37.018Z,93.40
2022-08-05T20:39:06.660Z,93.30
2022-08-05T20:41:44.190Z,93.30
2022-08-05T20:44:19.300Z,93.40
2022-08-05T20:46:59.467Z,93.50
2022-08-05T20:49:27.539Z,93.50
2022-08-05T20:51:57.514Z,93.50
2022-08-05T20:54:59.591Z,93.60
2022-08-05T20:57:41.894Z,93.60
2022-08-05T21:00:20.945Z,93.70
2022-08-05T21:02:56.116Z,93.80
2022-08-05T21:05:24.573Z,93.90
2022-08-05T21:07:52.543Z,93.90
2022-08-05T21:10:20.805Z,93.90
2022-08-05T21:12:57.695Z,93.90
2022-08-05T21:15:35.676Z,94.00
2022-08-05T21:18:03.612Z,94.10
2022-08-05T21:20:33.208Z,94.10
2022-08-05T21:23:01.468Z,94.10
2022-08-05T21:25:34.077Z,94.20
2022-08-05T21:28:03.066Z,94.20
2022-08-05T21:30:31.792Z,94.20
2022-08-05T21:33:01.858Z,94.30
2022-08-05T21:35:43.686Z,94.40
2022-08-05T21:38:17.768Z,94.50
2022-08-05T21:40:45.231Z,94.50
2022-08-05T21:43:24.162Z,94.60
2022-08-05T21:45:57.752Z,94.70
2022-08-05T21:48:29.142Z,94.80
2022-08-05T21:50:59.246Z,94.80
2022-08-05T21:53:27.237Z,94.80
2022-08-05T21:56:06.191Z,95.00
2022-08-05T21:58:56.959Z,95.00
2022-08-05T22:01:25.650Z,95.10
2022-08-05T22:03:53.803Z,95.20
2022-08-05T22:06:34.777Z,95.30
2022-08-05T22:09:13.955Z,95.20
2022-08-05T22:11:43.615Z,95.30
2022-08-05T22:14:33.672Z,95.40
2022-08-05T22:17:06.726Z,95.50
2022-08-05T22:20:00.644Z,95.60
2022-08-05T22:22:27.676Z,95.60
2022-08-05T22:25:27.544Z,95.70
2022-08-05T22:28:10.362Z,95.80
2022-08-05T22:30:55.345Z,95.90
2022-08-05T22:33:57.574Z,95.90
2022-08-05T22:36:15.269Z,96.00
2022-08-05T22:38:48.105Z,96.00
2022-08-05T22:41:16.840Z,96.10
2022-08-05T22:44:04.242Z,96.10
2022-08-05T22:46:31.813Z,96.20
2022-08-05T22:48:59.891Z,96.30
2022-08-05T22:52:02.531Z,96.40
2022-08-05T22:54:15.002Z,96.50
2022-08-05T22:56:42.833Z,96.50
2022-08-05T22:59:45.131Z,96.60
2022-08-05T23:02:05.489Z,96.60
2022-08-05T23:04:34.064Z,96.70
2022-08-05T23:07:01.953Z,96.70
2022-08-05T23:09:58.230Z,96.80
2022-08-05T23:12:18.231Z,97.00
2022-08-05T23:14:45.859Z,97.10
2022-08-05T23:17:32.818Z,97.10
2022-08-05T23:20:06.476Z,97.10
2022-08-05T23:22:47.577Z,97.30
2022-08-05T23:25:52.671Z,97.30
2022-08-05T23:28:06.985Z,97.30
2022-08-05T23:30:40.044Z,97.30
2022-08-05T23:33:22.110Z,97.40
2022-08-05T23:35:56.040Z,97.40
2022-08-05T23:38:26.187Z,97.40
2022-08-05T23:40:54.385Z,97.40
2022-08-05T23:43:25.245Z,97.40
2022-08-05T23:46:19.839Z,97.40
2022-08-05T23:49:00.512Z,97.50
2022-08-05T23:51:55.472Z,97.60
2022-08-05T23:54:36.325Z,97.60
2022-08-05T23:57:06.255Z,97.60
